createdAt,value
2022-10-15T00:00:40.834Z,14.90478515625
2022-10-15T00:10:40.695Z,14.90478515625
2022-10-15T00:20:40.652Z,14.19677734375
2022-10-15T00:30:40.533Z,15.6005859375
2022-10-15T00:40:40.459Z,16.00341796875
2022-10-15T00:50:40.386Z,15.5029296875
2022-10-15T01:00:40.414Z,16.39404296875
2022-10-15T01:10:40.262Z,15.90576171875
2022-10-15T01:20:40.305Z,16.29638671875
2022-10-15T01:30:40.093Z,16.00341796875
2022-10-15T01:40:40.127Z,16.29638671875
2022-10-15T01:50:39.978Z,16.29638671875
2022-10-15T02:00:40.037Z,15.6982421875
2022-10-15T02:10:39.857Z,16.19873046875
2022-10-15T02:20:39.874Z,16.69921875
2022-10-15T02:30:39.677Z,16.69921875
2022-10-15T02:40:39.760Z,17.00439453125
2022-10-15T02:50:39.551Z,15.7958984375
2022-10-15T03:00:39.670Z,15.6005859375
2022-10-15T03:10:39.408Z,15.6005859375
2022-10-15T03:20:39.457Z,15.10009765625
2022-10-15T03:30:39.276Z,14.501953125
2022-10-15T03:40:39.184Z,14.697265625
2022-10-15T03:50:39.219Z,14.697265625
2022-10-15T04:00:39.059Z,14.29443359375
2022-10-15T04:10:39.135Z,14.09912109375
2022-10-15T04:20:38.889Z,14.501953125
2022-10-15T04:30:38.817Z,14.29443359375
2022-10-15T04:40:38.870Z,14.00146484375
2022-10-15T04:50:38.702Z,13.6962890625
2022-10-15T05:00:38.674Z,13.5986328125
2022-10-15T05:10:38.556Z,13.7939453125
2022-10-15T05:20:38.535Z,13.5009765625
2022-10-15T05:30:38.428Z,13.4033203125
2022-10-15T05:40:38.433Z,13.19580078125
2022-10-15T05:50:38.302Z,12.80517578125
2022-10-15T06:00:38.312Z,12.6953125
2022-10-15T06:10:38.141Z,12.298583984375
2022-10-15T06:20:38.254Z,12.09716796875
2022-10-15T06:30:38.009Z,11.700439453125
2022-10-15T06:40:37.962Z,11.700439453125
2022-10-15T06:50:37.881Z,11.4013671875
2022-10-15T07:00:37.825Z,11.297607421875
2022-10-15T07:10:37.748Z,11.102294921875
2022-10-15T07:20:37.679Z,11.102294921875
2022-10-15T07:30:37.579Z,11.102294921875
2022-10-15T07:40:37.507Z,10.99853515625
2022-10-15T07:50:40.325Z,10.99853515625
2022-10-15T08:00:37.422Z,10.90087890625
2022-10-15T08:10:37.311Z,10.797119140625
2022-10-15T08:20:37.319Z,10.601806640625
2022-10-15T08:30:37.193Z,10.601806640625
2022-10-15T08:40:37.226Z,10.699462890625
2022-10-15T08:50:37.042Z,10.601806640625
2022-10-15T09:00:37.257Z,10.601806640625
2022-10-15T09:10:36.906Z,10.601806640625
2022-10-15T09:20:36.979Z,10.498046875
2022-10-15T09:30:36.770Z,10.601806640625
2022-10-15T09:40:36.836Z,10.601806640625
2022-10-15T09:50:36.630Z,10.601806640625
2022-10-15T10:00:36.616Z,10.699462890625
2022-10-15T10:10:36.482Z,10.797119140625
2022-10-15T10:20:36.445Z,10.400390625
2022-10-15T10:30:36.366Z,10.101318359375
2022-10-15T10:40:36.296Z,10.198974609375
2022-10-15T10:50:36.201Z,9.99755859375
2022-10-15T11:00:36.211Z,9.89990234375
2022-10-15T11:10:36.069Z,9.89990234375
2022-10-15T11:30:36.114Z,9.698486328125
2022-10-15T11:40:36.079Z,9.4970703125
2022-10-15T11:50:35.976Z,9.3994140625
2022-10-15T12:00:35.810Z,9.197998046875
2022-10-15T12:10:35.683Z,9.100341796875
2022-10-15T12:20:35.813Z,9.100341796875
2022-10-15T12:30:35.525Z,9.002685546875
2022-10-15T12:40:35.476Z,8.697509765625
2022-10-15T12:50:35.393Z,8.599853515625
2022-10-15T13:00:35.386Z,8.502197265625
2022-10-15T13:10:35.255Z,8.3984375
2022-10-15T13:20:35.197Z,8.3984375
2022-10-15T13:30:35.171Z,8.3984375
2022-10-15T13:40:35.125Z,8.3984375
2022-10-15T13:50:35.078Z,8.099365234375
2022-10-15T14:00:35.119Z,8.099365234375
2022-10-15T14:10:34.904Z,8.001708984375
2022-10-15T14:20:34.831Z,8.001708984375
2022-10-15T14:30:34.762Z,8.001708984375
2022-10-15T14:40:34.706Z,8.001708984375
2022-10-15T14:50:34.658Z,8.001708984375
2022-10-15T15:00:34.595Z,8.001708984375
2022-10-15T15:10:34.501Z,7.80029296875
2022-10-15T15:20:34.462Z,7.89794921875
2022-10-15T15:30:34.384Z,7.80029296875
2022-10-15T15:40:34.300Z,7.89794921875
2022-10-15T15:50:34.229Z,7.70263671875
2022-10-15T16:00:34.164Z,7.80029296875
2022-10-15T16:10:34.129Z,7.89794921875
2022-10-15T16:20:34.038Z,7.89794921875
2022-10-15T16:30:33.960Z,8.001708984375
2022-10-15T16:40:33.905Z,8.001708984375
2022-10-15T16:50:33.822Z,7.89794921875
2022-10-15T17:00:33.795Z,7.89794921875
2022-10-15T17:10:33.701Z,7.89794921875
2022-10-15T17:20:33.633Z,7.89794921875
2022-10-15T17:30:33.545Z,7.89794921875
2022-10-15T17:40:33.723Z,8.099365234375
2022-10-15T17:50:33.443Z,8.099365234375
2022-10-15T18:00:33.359Z,8.3984375
2022-10-15T18:10:33.304Z,8.89892578125
2022-10-15T18:20:33.232Z,9.002685546875
2022-10-15T18:30:33.161Z,9.197998046875
2022-10-15T18:40:36.222Z,9.3994140625
2022-10-15T18:50:33.018Z,9.89990234375
2022-10-15T19:00:33.015Z,9.600830078125
2022-10-15T19:10:32.902Z,9.4970703125
2022-10-15T19:20:33.140Z,9.4970703125
2022-10-15T19:30:32.780Z,9.3994140625
2022-10-15T19:40:32.712Z,9.4970703125
2022-10-15T19:50:32.618Z,9.698486328125
2022-10-15T20:00:32.554Z,9.89990234375
2022-10-15T20:10:32.488Z,10.101318359375
2022-10-15T20:20:32.523Z,11.102294921875
2022-10-15T20:30:32.328Z,11.4013671875
2022-10-15T20:40:32.296Z,12.5
2022-10-15T20:50:32.191Z,13.5009765625
2022-10-15T21:00:32.152Z,14.29443359375
2022-10-15T21:10:32.063Z,15.19775390625
2022-10-15T21:20:31.987Z,15.90576171875
2022-10-15T21:30:31.911Z,16.00341796875
2022-10-15T21:40:31.856Z,15.10009765625
2022-10-15T21:50:31.760Z,15.90576171875
2022-10-15T22:00:31.706Z,15.90576171875
2022-10-15T22:10:31.754Z,15.19775390625
2022-10-15T22:20:31.585Z,16.29638671875
2022-10-15T22:30:31.490Z,16.29638671875
2022-10-15T22:40:31.504Z,16.10107421875
2022-10-15T22:50:31.341Z,16.89453125
2022-10-15T23:00:31.312Z,17.00439453125
2022-10-15T23:20:33.717Z,16.19873046875
2022-10-15T23:30:31.057Z,17.29736328125
2022-10-15T23:40:30.988Z,18.00537109375
2022-10-15T23:50:30.929Z,18.701171875
